Time;durP1;ratioP1;P1;durP2;ratioP2;P2;SDS_P1;SDS_P2;PMS_P1;PMS_P2;Temp;Humidity;BMP_temperature;BMP_pressure;BME280_temperature;BME280_humidity;BME280_pressure;Samples;Min_cycle;Max_cycle;Signal;HPM_P1;HPM_P2
2021/01/14 00:02:39;;;;;;;11.77;5.55;;;;;;;4.33;69.78;99898.28;10344448;28;20265;-69
2021/01/14 00:07:40;;;;;;;10.45;5.88;;;;;;;4.44;70.18;99903.72;10348787;28;20292;-70
2021/01/14 00:12:43;;;;;;;8.18;4.82;;;;;;;4.58;69.76;99893.19;10372354;28;20104;-69
2021/01/14 00:17:47;;;;;;;10.85;5.35;;;;;;;4.67;69.65;99904.09;10361028;28;20499;-71
2021/01/14 00:22:48;;;;;;;8.03;5.23;;;;;;;4.68;69.47;99903.19;10342567;28;20100;-69
2021/01/14 00:27:51;;;;;;;7.95;5.32;;;;;;;4.77;69.11;99910.50;10347424;28;20100;-68
2021/01/14 00:32:54;;;;;;;8.20;5.78;;;;;;;4.75;69.69;99901.88;10354309;28;20053;-69
2021/01/14 00:37:56;;;;;;;8.02;5.30;;;;;;;4.53;70.42;99904.97;10388080;28;20339;-69
2021/01/14 00:42:59;;;;;;;9.15;5.63;;;;;;;4.53;70.67;99915.50;10352606;28;20104;-69
2021/01/14 00:48:02;;;;;;;8.98;5.80;;;;;;;4.59;70.49;99925.66;10345618;28;20420;-69
2021/01/14 00:53:03;;;;;;;9.23;6.32;;;;;;;4.55;70.75;99927.66;10343574;28;20054;-69
2021/01/14 00:58:04;;;;;;;8.68;6.03;;;;;;;4.63;71.08;99929.00;10351797;28;20092;-69
2021/01/14 01:03:05;;;;;;;8.52;6.07;;;;;;;4.39;71.50;99938.28;10341166;28;20108;-69
2021/01/14 01:08:07;;;;;;;8.65;6.28;;;;;;;4.41;71.85;99948.72;10345822;28;20073;-69
2021/01/14 01:13:08;;;;;;;11.05;6.25;;;;;;;4.31;72.36;99952.84;10343376;28;20077;-69
2021/01/14 01:18:09;;;;;;;8.02;6.30;;;;;;;4.33;72.55;99945.72;10341858;28;20129;-69
2021/01/14 01:23:10;;;;;;;7.65;6.57;;;;;;;4.37;73.10;99969.16;10339190;28;20068;-70
2021/01/14 01:28:12;;;;;;;7.60;5.80;;;;;;;4.55;72.04;99976.91;10358605;28;20045;-71
2021/01/14 01:33:13;;;;;;;10.68;6.10;;;;;;;4.41;72.50;99986.47;10346191;28;20129;-69
2021/01/14 01:38:15;;;;;;;9.10;6.30;;;;;;;4.30;72.02;99995.97;10341178;28;20580;-69
2021/01/14 01:43:16;;;;;;;8.10;5.10;;;;;;;4.12;71.60;100001.34;10347756;28;20066;-70
2021/01/14 01:48:18;;;;;;;8.35;4.57;;;;;;;4.02;69.16;100000.16;10341334;28;20097;-70
2021/01/14 01:53:20;;;;;;;7.47;4.57;;;;;;;4.19;67.36;100007.97;10345976;28;20574;-68
2021/01/14 01:58:22;;;;;;;7.72;4.28;;;;;;;3.96;66.10;100000.53;10334040;28;20341;-70
2021/01/14 02:03:23;;;;;;;7.07;3.63;;;;;;;3.99;65.00;100016.16;10332306;28;20054;-71
2021/01/14 02:08:40;;;;;;;6.95;3.80;;;;;;;4.11;65.35;100035.69;10343835;28;20685;-70
2021/01/14 02:13:47;;;;;;;4.07;2.70;;;;;;;4.10;63.80;100034.84;10338219;28;20060;-70
2021/01/14 02:18:54;;;;;;;5.35;2.72;;;;;;;3.93;61.51;100043.69;10356054;28;20045;-69
2021/01/14 02:24:01;;;;;;;6.90;1.90;;;;;;;4.06;59.85;100049.94;10340340;28;20092;-69
2021/01/14 02:29:03;;;;;;;6.25;2.30;;;;;;;3.92;58.17;100046.41;10341176;28;20530;-70
2021/01/14 02:34:05;;;;;;;4.95;2.03;;;;;;;3.68;58.63;100055.59;10331082;28;20108;-69
2021/01/14 02:39:06;;;;;;;3.63;1.80;;;;;;;3.60;57.93;100063.03;10338219;28;20404;-69
2021/01/14 02:44:07;;;;;;;5.07;1.67;;;;;;;3.60;58.64;100064.84;10343633;28;20100;-69
2021/01/14 02:49:09;;;;;;;3.95;1.88;;;;;;;3.76;56.61;100057.78;10344109;28;20108;-69
2021/01/14 02:54:12;;;;;;;4.55;1.50;;;;;;;3.64;57.34;100063.75;10354154;28;20054;-69
2021/01/14 02:59:14;;;;;;;4.22;1.40;;;;;;;3.77;55.96;100083.19;10360490;28;20065;-68
2021/01/14 03:04:15;;;;;;;3.90;1.17;;;;;;;3.53;55.53;100073.06;10346937;28;20065;-69
2021/01/14 03:09:16;;;;;;;2.67;1.45;;;;;;;3.51;55.33;100085.47;10379948;28;20175;-69
2021/01/14 03:14:17;;;;;;;2.28;1.10;;;;;;;3.31;55.76;100090.94;10348510;28;20103;-70
2021/01/14 03:19:18;;;;;;;2.85;1.17;;;;;;;3.32;56.12;100090.84;10343404;28;20145;-70
2021/01/14 03:24:20;;;;;;;5.32;2.10;;;;;;;3.20;56.97;100091.50;10339497;28;20046;-69
2021/01/14 03:29:21;;;;;;;1.75;1.00;;;;;;;3.47;56.14;100106.78;10341029;28;20054;-69
2021/01/14 03:34:22;;;;;;;4.38;1.42;;;;;;;3.27;55.14;100108.69;10336554;28;20211;-69
2021/01/14 03:39:28;;;;;;;4.18;1.50;;;;;;;3.02;56.03;100119.63;10339173;28;20100;-69
2021/01/14 03:44:29;;;;;;;5.55;1.00;;;;;;;3.30;56.11;100129.56;10355746;28;20131;-69
2021/01/14 03:49:31;;;;;;;4.97;1.58;;;;;;;3.45;55.37;100142.81;10339220;28;20053;-70
2021/01/14 03:54:32;;;;;;;2.25;0.82;;;;;;;3.18;56.39;100140.69;10334074;28;20439;-68
2021/01/14 03:59:33;;;;;;;4.47;1.20;;;;;;;3.13;56.68;100138.31;10358671;28;20131;-68
2021/01/14 04:04:39;;;;;;;4.18;1.00;;;;;;;3.13;57.18;100143.56;10336339;28;20476;-69
2021/01/14 04:09:42;;;;;;;3.50;1.10;;;;;;;3.12;56.73;100147.16;10342581;28;20053;-69
2021/01/14 04:14:50;;;;;;;3.45;1.00;;;;;;;2.89;58.13;100137.78;10340113;28;20053;-70
2021/01/14 04:19:51;;;;;;;2.33;1.00;;;;;;;3.19;57.74;100138.00;10339149;28;20129;-72
2021/01/14 04:25:01;;;;;;;5.57;1.38;;;;;;;3.25;57.86;100162.28;10340814;28;20062;-68
2021/01/14 04:30:03;;;;;;;2.05;0.98;;;;;;;3.41;57.28;100157.94;10333818;28;20061;-70
2021/01/14 04:35:05;;;;;;;3.10;1.27;;;;;;;3.44;57.21;100160.41;10335623;28;20111;-69
2021/01/14 04:40:07;;;;;;;6.35;1.02;;;;;;;3.44;57.54;100146.38;10338174;28;20100;-69
2021/01/14 04:45:09;;;;;;;3.50;1.13;;;;;;;3.14;58.31;100133.91;10326368;28;20054;-69
2021/01/14 04:50:13;;;;;;;4.88;1.10;;;;;;;3.17;58.69;100144.28;10336019;28;20526;-69
2021/01/14 04:55:20;;;;;;;3.28;1.10;;;;;;;3.21;58.75;100158.13;10332604;28;20142;-70
2021/01/14 05:00:25;;;;;;;4.75;1.02;;;;;;;3.47;58.42;100157.63;10330737;28;20054;-69
2021/01/14 05:05:30;;;;;;;1.35;0.63;;;;;;;3.34;57.99;100167.91;10327635;28;20135;-69
2021/01/14 05:10:34;;;;;;;7.78;1.38;;;;;;;3.24;57.95;100155.31;10334043;28;20049;-69
2021/01/14 05:15:37;;;;;;;4.75;1.10;;;;;;;3.21;57.92;100155.47;10342675;28;20500;-67
2021/01/14 05:20:39;;;;;;;3.28;0.90;;;;;;;3.03;59.11;100163.38;10337838;28;20100;-69
2021/01/14 05:25:51;;;;;;;4.13;1.40;;;;;;;3.29;58.20;100174.38;10347193;28;20050;-70
2021/01/14 05:30:53;;;;;;;5.90;1.30;;;;;;;3.50;57.70;100194.31;10335008;28;20099;-69
2021/01/14 05:36:03;;;;;;;7.45;1.25;;;;;;;3.59;57.32;100181.56;10331104;28;20139;-69
2021/01/14 05:41:19;;;;;;;3.72;1.30;;;;;;;3.64;56.93;100176.94;10322496;28;20104;-70
2021/01/14 05:46:26;;;;;;;3.42;1.20;;;;;;;3.51;57.14;100181.97;10325129;28;20049;-70
2021/01/14 05:51:32;;;;;;;3.13;0.95;;;;;;;3.51;56.72;100196.00;10330964;28;20064;-70
2021/01/14 05:56:46;;;;;;;5.28;1.30;;;;;;;3.66;58.13;100207.53;10333994;28;20138;-69
2021/01/14 06:01:59;;;;;;;3.60;1.40;;;;;;;3.58;56.90;100200.94;10337958;28;20074;-70
2021/01/14 06:07:04;;;;;;;3.53;1.10;;;;;;;3.47;56.67;100189.19;10357990;28;20862;-70
2021/01/14 06:12:11;;;;;;;3.90;0.95;;;;;;;3.50;57.14;100199.56;10316988;28;20050;-68
2021/01/14 06:17:13;;;;;;;3.83;1.60;;;;;;;3.31;57.61;100196.19;10318507;28;20061;-70
2021/01/14 06:22:15;;;;;;;3.28;1.60;;;;;;;3.48;57.33;100196.19;10319068;28;20196;-71
2021/01/14 06:27:17;;;;;;;4.40;1.52;;;;;;;3.59;57.10;100208.78;10322697;28;20073;-71
2021/01/14 06:32:19;;;;;;;5.45;1.98;;;;;;;3.62;57.66;100207.72;10325797;28;20045;-71
2021/01/14 06:37:23;;;;;;;1.90;1.10;;;;;;;3.52;57.35;100229.28;10329804;28;20050;-70
2021/01/14 06:42:27;;;;;;;4.93;1.73;;;;;;;3.61;56.85;100242.91;10334289;28;20046;-71
2021/01/14 06:47:40;;;;;;;4.07;1.50;;;;;;;3.64;56.96;100254.13;10334867;28;20288;-70
2021/01/14 06:52:46;;;;;;;3.03;1.05;;;;;;;3.58;57.68;100259.69;10323938;28;20066;-70
2021/01/14 06:58:10;;;;;;;5.10;1.50;;;;;;;3.46;58.82;100265.59;10328588;28;20092;-71
2021/01/14 07:08:37;;;;;;;3.90;1.33;;;;;;;3.59;57.10;100278.97;10381546;28;20069;-70
2021/01/14 07:13:40;;;;;;;3.60;0.90;;;;;;;3.60;57.18;100280.69;10346772;28;20049;-69
2021/01/14 07:18:44;;;;;;;4.88;1.48;;;;;;;3.61;57.25;100287.66;10333369;28;20069;-70
2021/01/14 07:24:19;;;;;;;2.78;1.33;;;;;;;3.46;59.14;100295.38;10337398;28;20305;-70
2021/01/14 07:29:21;;;;;;;6.05;1.80;;;;;;;3.63;57.59;100305.06;10335604;28;20133;-70
2021/01/14 07:34:34;;;;;;;4.82;1.50;;;;;;;3.66;57.21;100315.47;10315719;28;20064;-69
2021/01/14 07:39:46;;;;;;;2.85;1.92;;;;;;;3.64;56.91;100337.50;10329367;28;20048;-69
2021/01/14 07:44:51;;;;;;;4.05;1.50;;;;;;;3.70;56.94;100343.31;10365035;28;20046;-68
2021/01/14 07:49:52;;;;;;;5.65;1.70;;;;;;;3.69;56.93;100340.75;10342198;28;20050;-69
2021/01/14 07:55:07;;;;;;;4.32;1.90;;;;;;;3.75;57.43;100340.44;10329317;28;20041;-69
2021/01/14 08:00:19;;;;;;;3.15;1.55;;;;;;;3.72;56.99;100352.00;10356808;28;20117;-69
2021/01/14 08:05:37;;;;;;;4.28;1.70;;;;;;;3.69;57.43;100360.06;10342878;28;20053;-69
2021/01/14 08:10:38;;;;;;;6.05;2.63;;;;;;;3.76;57.02;100367.66;10339072;28;20038;-69
2021/01/14 08:15:40;;;;;;;4.53;1.58;;;;;;;3.81;56.88;100382.25;10354757;28;20103;-69
2021/01/14 08:20:41;;;;;;;4.70;1.98;;;;;;;3.72;56.89;100388.00;10351465;28;20115;-69
2021/01/14 08:25:43;;;;;;;4.78;1.92;;;;;;;3.79;56.65;100389.41;10342731;28;20050;-69
2021/01/14 08:30:44;;;;;;;3.80;2.00;;;;;;;3.86;56.56;100389.97;10388483;28;20061;-69
2021/01/14 08:35:47;;;;;;;5.10;2.13;;;;;;;3.43;58.04;100403.44;10341478;28;20528;-69
2021/01/14 08:40:49;;;;;;;4.90;1.38;;;;;;;3.60;58.02;100407.03;10338333;28;20704;-69
2021/01/14 08:45:55;;;;;;;6.22;2.20;;;;;;;3.60;58.17;100425.47;10357269;28;20065;-69
2021/01/14 08:50:56;;;;;;;2.55;1.55;;;;;;;3.86;57.26;100432.09;10332149;28;20058;-70
2021/01/14 08:56:04;;;;;;;5.78;2.25;;;;;;;4.03;56.96;100434.72;10341109;28;20052;-69
2021/01/14 09:01:08;;;;;;;3.53;1.33;;;;;;;4.18;56.56;100432.25;10335127;28;20497;-69
2021/01/14 09:06:09;;;;;;;7.30;3.03;;;;;;;4.17;56.34;100443.72;10334627;28;20043;-69
2021/01/14 09:11:11;;;;;;;4.68;1.92;;;;;;;4.22;56.30;100453.09;10338258;28;20046;-68
2021/01/14 09:16:12;;;;;;;5.13;1.60;;;;;;;4.21;55.76;100458.44;10349966;28;20491;-68
2021/01/14 09:21:14;;;;;;;4.85;1.80;;;;;;;4.29;56.52;100465.94;10384690;28;20045;-70
2021/01/14 09:26:20;;;;;;;7.03;2.08;;;;;;;4.44;55.21;100470.44;10382661;28;20442;-69
2021/01/14 09:31:21;;;;;;;6.00;1.60;;;;;;;4.46;55.10;100472.97;10335775;28;20042;-69
2021/01/14 09:36:23;;;;;;;7.97;1.83;;;;;;;4.01;56.17;100488.44;10354584;28;20127;-68
2021/01/14 09:41:29;;;;;;;2.90;1.63;;;;;;;4.36;55.76;100485.81;10332836;28;20092;-69
2021/01/14 09:46:36;;;;;;;2.67;1.45;;;;;;;4.49;54.06;100497.44;10338288;28;20042;-69
2021/01/14 09:51:43;;;;;;;5.25;1.30;;;;;;;4.52;54.01;100497.25;10333707;28;20054;-69
2021/01/14 09:56:53;;;;;;;4.53;1.92;;;;;;;4.60;54.01;100508.25;10339534;28;20256;-69
2021/01/14 10:02:00;;;;;;;4.05;1.33;;;;;;;4.62;53.79;100520.50;10348529;28;20228;-69
2021/01/14 10:07:05;;;;;;;4.10;1.08;;;;;;;4.66;53.02;100527.34;10347873;28;20111;-69
2021/01/14 10:12:08;;;;;;;4.82;1.30;;;;;;;4.69;52.73;100529.81;10344653;28;20503;-68
2021/01/14 10:17:12;;;;;;;4.60;1.70;;;;;;;4.66;52.72;100537.91;10347069;28;20045;-71
2021/01/14 10:22:14;;;;;;;6.20;1.33;;;;;;;4.78;52.67;100547.81;10346687;28;20476;-68
2021/01/14 10:27:23;;;;;;;4.60;1.50;;;;;;;4.83;51.68;100542.28;10342123;28;20050;-68
2021/01/14 10:32:25;;;;;;;4.97;1.55;;;;;;;4.81;52.08;100547.66;10368900;28;20107;-70
2021/01/14 10:37:29;;;;;;;3.80;1.25;;;;;;;4.87;52.97;100546.47;10335540;28;20452;-68
2021/01/14 10:42:32;;;;;;;3.03;1.95;;;;;;;4.95;52.07;100550.44;10337215;28;20057;-69
2021/01/14 10:47:35;;;;;;;4.88;1.92;;;;;;;4.96;51.81;100552.13;10366787;28;20050;-69
2021/01/14 10:53:03;;;;;;;5.50;1.67;;;;;;;4.91;51.48;100551.50;10350182;28;20085;-70
2021/01/14 10:58:06;;;;;;;1.40;1.10;;;;;;;4.88;52.14;100553.44;10339343;28;20498;-69
2021/01/14 11:03:10;;;;;;;4.57;1.85;;;;;;;4.80;52.21;100553.84;10343554;28;20108;-68
2021/01/14 11:08:16;;;;;;;5.28;1.90;;;;;;;4.95;52.52;100545.16;10341363;28;20066;-68
2021/01/14 11:13:18;;;;;;;4.03;2.03;;;;;;;5.03;52.36;100533.31;10344506;28;20104;-69
2021/01/14 11:18:19;;;;;;;5.72;2.47;;;;;;;5.05;51.92;100531.47;10346219;28;20050;-70
2021/01/14 11:23:20;;;;;;;4.93;2.00;;;;;;;5.18;52.45;100526.38;10362062;28;20317;-70
2021/01/14 11:28:22;;;;;;;5.05;2.38;;;;;;;5.18;52.64;100514.06;10381628;28;20708;-70
2021/01/14 11:33:23;;;;;;;2.90;2.30;;;;;;;5.27;52.15;100508.28;10378202;28;20053;-69
2021/01/14 11:38:24;;;;;;;4.45;2.80;;;;;;;5.28;52.08;100499.44;10373564;28;20080;-71
2021/01/14 11:43:26;;;;;;;7.55;2.33;;;;;;;5.61;52.43;100495.84;10377819;28;20122;-69
2021/01/14 11:48:27;;;;;;;4.75;2.40;;;;;;;5.76;50.65;100488.84;10376125;28;20053;-70
2021/01/14 11:53:29;;;;;;;4.22;3.00;;;;;;;5.85;50.92;100492.75;10377536;28;20047;-70
2021/01/14 11:58:31;;;;;;;4.47;2.78;;;;;;;5.95;51.09;100486.00;10382104;28;20049;-69
2021/01/14 12:03:33;;;;;;;4.70;2.47;;;;;;;6.04;50.75;100470.59;10373841;28;20049;-70
2021/01/14 12:08:34;;;;;;;5.38;2.55;;;;;;;6.08;50.38;100469.47;10371085;28;20055;-69
2021/01/14 12:13:35;;;;;;;4.20;2.40;;;;;;;6.15;50.69;100474.28;10370478;28;20556;-68
2021/01/14 12:18:37;;;;;;;3.17;2.03;;;;;;;6.24;49.27;100467.63;10384674;28;20057;-69
2021/01/14 12:23:38;;;;;;;5.88;2.70;;;;;;;6.30;49.56;100461.13;10380871;28;20135;-69
2021/01/14 12:28:40;;;;;;;4.10;2.00;;;;;;;6.25;49.38;100457.91;10375030;28;21041;-69
2021/01/14 12:33:41;;;;;;;3.55;2.15;;;;;;;6.26;50.10;100460.47;10345505;28;20058;-70
2021/01/14 12:38:42;;;;;;;3.75;2.60;;;;;;;6.34;49.55;100452.09;10345818;28;20050;-69
2021/01/14 12:43:44;;;;;;;6.25;2.38;;;;;;;6.63;50.81;100447.66;10335672;28;20050;-72
2021/01/14 12:48:45;;;;;;;4.88;2.45;;;;;;;6.55;48.79;100444.66;10341932;28;20349;-69
2021/01/14 12:53:46;;;;;;;3.22;2.20;;;;;;;6.63;49.34;100441.53;10340777;28;20049;-70
2021/01/14 12:58:47;;;;;;;5.68;2.42;;;;;;;6.64;49.58;100465.25;10347511;28;20074;-69
2021/01/14 13:03:49;;;;;;;2.65;2.28;;;;;;;6.56;50.23;100456.94;10335874;28;20042;-69
2021/01/14 13:08:50;;;;;;;3.83;2.20;;;;;;;6.62;49.44;100445.97;10333660;28;20278;-69
2021/01/14 13:13:58;;;;;;;4.10;3.20;;;;;;;6.78;50.02;100451.16;10336947;28;20434;-69
2021/01/14 13:19:02;;;;;;;7.15;3.10;;;;;;;6.71;49.13;100452.47;10338725;28;20046;-69
2021/01/14 13:24:05;;;;;;;4.40;2.55;;;;;;;6.72;48.65;100447.13;10347815;28;20058;-71
2021/01/14 13:29:08;;;;;;;4.68;2.83;;;;;;;6.71;49.13;100461.28;10330981;28;20095;-69
2021/01/14 13:34:11;;;;;;;4.90;3.95;;;;;;;6.64;49.87;100444.09;10384078;28;20514;-70
2021/01/14 13:39:12;;;;;;;4.40;3.90;;;;;;;6.54;49.87;100448.22;10384267;28;20045;-71
2021/01/14 13:44:13;;;;;;;3.90;3.38;;;;;;;6.47;49.54;100442.47;10383563;28;20049;-70
2021/01/14 13:49:18;;;;;;;8.05;5.53;;;;;;;6.24;49.96;100454.41;10345990;28;20125;-69
2021/01/14 13:54:21;;;;;;;3.78;2.90;;;;;;;6.01;51.26;100435.47;10340759;28;20045;-71
2021/01/14 13:59:22;;;;;;;4.30;2.42;;;;;;;5.95;51.08;100443.72;10341926;28;20046;-69
2021/01/14 14:04:23;;;;;;;7.20;3.72;;;;;;;5.79;52.20;100459.59;10367553;28;20175;-69
2021/01/14 14:09:25;;;;;;;6.93;4.40;;;;;;;5.70;52.04;100459.28;10333386;28;20154;-69
2021/01/14 14:14:26;;;;;;;3.40;3.10;;;;;;;5.63;52.29;100466.69;10348457;28;20095;-69
2021/01/14 14:19:27;;;;;;;5.20;3.17;;;;;;;5.41;52.86;100467.06;10337747;28;20046;-69
2021/01/14 14:24:29;;;;;;;4.65;3.10;;;;;;;5.29;54.00;100466.78;10326480;28;20064;-69
2021/01/14 14:29:31;;;;;;;5.75;3.13;;;;;;;5.12;54.24;100472.16;10331833;28;20155;-67
2021/01/14 14:34:32;;;;;;;5.43;3.63;;;;;;;5.03;54.21;100470.00;10328413;28;20117;-69
2021/01/14 14:39:39;;;;;;;7.95;3.70;;;;;;;4.97;54.75;100465.94;10327551;28;20419;-69
2021/01/14 14:44:40;;;;;;;6.00;3.78;;;;;;;4.90;55.56;100469.81;10333861;28;20077;-70
2021/01/14 14:49:42;;;;;;;4.40;3.63;;;;;;;4.88;55.29;100479.56;10335596;28;20057;-70
2021/01/14 14:54:43;;;;;;;9.57;4.22;;;;;;;4.76;55.49;100460.00;10371838;28;20049;-70
2021/01/14 14:59:44;;;;;;;6.00;4.00;;;;;;;4.76;56.26;100470.56;10394847;28;20178;-68
2021/01/14 15:04:46;;;;;;;6.72;4.00;;;;;;;4.65;56.72;100467.63;10387380;28;20109;-69
2021/01/14 15:09:48;;;;;;;7.82;4.20;;;;;;;4.52;56.72;100473.53;10382522;28;20111;-68
2021/01/14 15:14:49;;;;;;;10.40;4.00;;;;;;;4.46;57.35;100479.13;10370582;28;20129;-69
2021/01/14 15:19:50;;;;;;;7.15;4.28;;;;;;;4.38;57.31;100476.91;10384875;28;20105;-70
2021/01/14 15:24:51;;;;;;;6.68;4.03;;;;;;;4.33;57.53;100483.31;10378012;28;20085;-69
2021/01/14 15:29:53;;;;;;;5.47;3.92;;;;;;;4.19;57.87;100476.13;10386109;28;22376;-69
2021/01/14 15:34:55;;;;;;;7.32;4.03;;;;;;;4.25;60.32;100466.09;10383332;28;20629;-69
2021/01/14 15:39:56;;;;;;;5.65;4.63;;;;;;;4.19;58.18;100474.31;10381861;28;20041;-68
2021/01/14 15:44:58;;;;;;;9.32;5.20;;;;;;;4.07;57.90;100482.84;10383611;28;20046;-68
2021/01/14 15:50:00;;;;;;;6.35;4.38;;;;;;;4.00;58.09;100481.44;10385834;28;20126;-68
2021/01/14 15:55:04;;;;;;;8.23;4.80;;;;;;;3.93;58.67;100482.66;10382204;28;20050;-68
2021/01/14 16:00:06;;;;;;;7.32;4.32;;;;;;;3.88;58.53;100491.63;10375292;28;20061;-68
2021/01/14 16:05:08;;;;;;;5.65;4.53;;;;;;;3.83;58.87;100483.13;10383503;28;20041;-70
2021/01/14 16:10:10;;;;;;;9.07;5.00;;;;;;;3.83;58.95;100490.19;10389957;28;20060;-69
2021/01/14 16:15:12;;;;;;;7.65;4.35;;;;;;;3.81;58.96;100492.84;10383860;28;20515;-68
2021/01/14 16:20:15;;;;;;;7.05;4.68;;;;;;;3.73;59.26;100487.13;10380874;28;20053;-69
2021/01/14 16:25:17;;;;;;;5.70;4.20;;;;;;;3.72;59.25;100493.31;10383980;28;20041;-69
2021/01/14 16:30:18;;;;;;;6.35;4.50;;;;;;;3.64;59.72;100487.56;10366654;28;20125;-69
2021/01/14 16:35:19;;;;;;;9.85;5.35;;;;;;;3.66;59.69;100490.97;10328064;28;20055;-69
2021/01/14 16:40:21;;;;;;;7.93;5.40;;;;;;;3.71;59.74;100499.53;10334843;28;20054;-69
2021/01/14 16:45:22;;;;;;;6.80;5.10;;;;;;;3.63;60.25;100504.28;10339026;28;20084;-70
2021/01/14 16:50:23;;;;;;;9.45;5.70;;;;;;;3.59;60.46;100500.97;10341070;28;20050;-69
2021/01/14 16:55:25;;;;;;;7.22;5.65;;;;;;;3.52;60.53;100495.13;10335191;28;20061;-70
2021/01/14 17:00:26;;;;;;;7.43;4.97;;;;;;;3.46;60.93;100482.25;10335969;28;20049;-69
2021/01/14 17:05:27;;;;;;;8.50;5.55;;;;;;;3.44;61.26;100473.59;10336795;28;20080;-69
2021/01/14 17:10:29;;;;;;;12.20;6.38;;;;;;;3.40;61.34;100469.38;10335773;28;20053;-69
2021/01/14 17:15:31;;;;;;;6.75;5.35;;;;;;;3.38;61.42;100462.47;10334636;28;20053;-71
2021/01/14 17:20:32;;;;;;;7.65;5.28;;;;;;;3.38;61.58;100470.38;10341432;28;20064;-69
2021/01/14 17:25:33;;;;;;;6.38;5.05;;;;;;;3.22;61.70;100457.09;10341057;28;20057;-69
2021/01/14 17:30:35;;;;;;;8.57;5.35;;;;;;;3.22;62.08;100452.69;10333339;28;20407;-69
2021/01/14 17:35:36;;;;;;;8.80;5.47;;;;;;;3.18;62.13;100449.34;10335342;28;20168;-70
2021/01/14 17:40:38;;;;;;;10.90;5.78;;;;;;;3.23;62.21;100456.16;10327949;28;20046;-70
2021/01/14 17:45:39;;;;;;;8.73;5.13;;;;;;;3.19;62.42;100455.47;10333293;28;20054;-70
2021/01/14 17:50:40;;;;;;;8.63;6.65;;;;;;;3.13;62.70;100456.59;10336026;28;20054;-70
2021/01/14 17:55:42;;;;;;;6.95;5.35;;;;;;;3.10;62.73;100455.88;10337117;28;20523;-71
2021/01/14 18:00:43;;;;;;;7.82;5.22;;;;;;;3.03;62.47;100447.41;10336407;28;20080;-71
2021/01/14 18:05:44;;;;;;;7.68;5.20;;;;;;;3.05;62.83;100444.72;10334897;28;20042;-72
2021/01/14 18:10:56;;;;;;;9.13;6.38;;;;;;;3.04;62.34;100450.91;10333222;28;20074;-71
2021/01/14 18:15:57;;;;;;;9.15;6.95;;;;;;;2.98;62.50;100449.41;10338872;28;20046;-71
2021/01/14 18:20:59;;;;;;;9.57;7.00;;;;;;;2.91;62.43;100447.97;10341187;28;20054;-71
2021/01/14 18:26:01;;;;;;;7.20;6.53;;;;;;;2.90;62.11;100454.16;10333560;28;20058;-71
2021/01/14 18:31:04;;;;;;;7.78;6.03;;;;;;;2.80;62.59;100451.94;10344730;28;20460;-68
2021/01/14 18:36:29;;;;;;;9.13;5.88;;;;;;;2.78;62.53;100459.06;10351798;28;20041;-70
2021/01/14 18:41:30;;;;;;;7.32;6.05;;;;;;;2.80;62.28;100457.19;10340492;28;20463;-72
2021/01/14 18:46:31;;;;;;;6.70;5.53;;;;;;;2.77;62.12;100452.09;10340333;28;20092;-70
2021/01/14 18:51:36;;;;;;;7.25;5.63;;;;;;;2.80;61.89;100449.31;10338493;28;20092;-69
2021/01/14 18:56:37;;;;;;;7.78;6.43;;;;;;;2.74;62.08;100456.63;10326491;28;22494;-70
2021/01/14 19:01:43;;;;;;;6.68;5.47;;;;;;;2.70;61.88;100455.91;10331342;28;20061;-72
2021/01/14 19:06:44;;;;;;;7.13;5.78;;;;;;;2.72;61.76;100458.47;10341573;28;20451;-71
2021/01/14 19:11:47;;;;;;;6.25;5.63;;;;;;;2.74;61.69;100452.22;10343887;28;20386;-71
2021/01/14 19:16:50;;;;;;;7.90;5.00;;;;;;;2.70;61.60;100448.00;10340559;28;20428;-71
2021/01/14 19:21:54;;;;;;;6.88;5.07;;;;;;;2.76;61.29;100452.16;10337224;28;20050;-71
2021/01/14 19:26:57;;;;;;;6.60;5.80;;;;;;;2.72;61.17;100448.81;10360675;28;20053;-70
2021/01/14 19:32:01;;;;;;;7.47;4.78;;;;;;;2.67;61.14;100442.91;10329058;28;20050;-71
2021/01/14 19:37:04;;;;;;;5.57;4.60;;;;;;;2.67;61.09;100450.78;10331395;28;20049;-71
2021/01/14 19:42:10;;;;;;;6.32;4.32;;;;;;;2.68;60.98;100451.66;10338911;28;20247;-68
2021/01/14 19:47:12;;;;;;;4.85;4.15;;;;;;;2.64;60.45;100445.66;10346587;28;20049;-71
2021/01/14 19:52:13;;;;;;;8.18;5.65;;;;;;;2.67;60.43;100445.53;10333814;28;20046;-71
2021/01/14 19:57:14;;;;;;;5.30;4.55;;;;;;;2.71;60.22;100454.16;10322535;28;20501;-71
2021/01/14 20:02:15;;;;;;;5.95;4.53;;;;;;;2.71;59.61;100441.00;10337207;28;20046;-70
2021/01/14 20:07:17;;;;;;;5.78;4.10;;;;;;;2.70;59.68;100461.16;10338806;28;20049;-70
2021/01/14 20:12:18;;;;;;;6.13;4.13;;;;;;;2.72;59.29;100467.22;10330475;28;20066;-69
2021/01/14 20:17:20;;;;;;;5.68;4.55;;;;;;;2.66;59.45;100467.50;10329638;28;20100;-70
2021/01/14 20:22:21;;;;;;;5.63;4.55;;;;;;;2.61;59.88;100462.44;10325427;28;20381;-70
2021/01/14 20:27:23;;;;;;;6.07;3.83;;;;;;;2.62;59.34;100466.75;10355998;28;20343;-71
2021/01/14 20:32:25;;;;;;;7.18;3.92;;;;;;;2.57;59.83;100468.75;10326848;28;20061;-72
2021/01/14 20:37:26;;;;;;;5.25;4.13;;;;;;;2.52;60.05;100483.00;10328904;28;20208;-69
2021/01/14 20:42:35;;;;;;;5.75;4.00;;;;;;;2.48;59.68;100477.03;10329452;28;20057;-71
2021/01/14 20:47:40;;;;;;;6.25;4.72;;;;;;;2.43;60.17;100485.13;10330893;28;21506;-72
2021/01/14 20:52:42;;;;;;;5.88;4.25;;;;;;;2.42;59.93;100501.78;10332527;28;20058;-71
2021/01/14 20:57:44;;;;;;;6.20;3.40;;;;;;;2.36;60.08;100488.94;10332877;28;20086;-70
2021/01/14 21:02:45;;;;;;;5.20;4.22;;;;;;;2.31;59.87;100485.63;10329679;28;20115;-70
2021/01/14 21:07:47;;;;;;;4.68;3.40;;;;;;;2.30;60.12;100489.19;10328845;28;20460;-71
2021/01/14 21:12:49;;;;;;;5.43;3.45;;;;;;;2.23;60.00;100482.47;10327836;28;20057;-71
2021/01/14 21:17:50;;;;;;;5.90;4.47;;;;;;;2.25;59.83;100485.88;10324604;28;20045;-69
2021/01/14 21:22:52;;;;;;;6.15;3.78;;;;;;;2.24;59.87;100484.19;10325233;28;20554;-69
2021/01/14 21:27:53;;;;;;;5.55;3.95;;;;;;;2.18;59.58;100471.28;10324135;28;20073;-69
2021/01/14 21:32:55;;;;;;;5.95;3.72;;;;;;;2.22;59.53;100476.38;10324438;28;20053;-70
2021/01/14 21:37:57;;;;;;;4.53;3.70;;;;;;;2.20;59.45;100477.34;10327891;28;20135;-70
2021/01/14 21:42:59;;;;;;;4.43;3.55;;;;;;;2.21;59.56;100479.06;10325844;28;20048;-69
2021/01/14 21:48:00;;;;;;;3.53;2.80;;;;;;;2.13;59.41;100471.50;10357285;28;20107;-70
2021/01/14 21:53:02;;;;;;;4.13;3.60;;;;;;;2.12;59.47;100486.41;10364120;28;20045;-70
2021/01/14 21:58:04;;;;;;;4.82;3.63;;;;;;;2.05;59.41;100486.72;10366567;28;20053;-67
2021/01/14 22:03:06;;;;;;;5.72;3.78;;;;;;;2.03;59.66;100481.53;10367726;28;20058;-68
2021/01/14 22:08:08;;;;;;;4.43;3.58;;;;;;;2.03;59.67;100480.69;10367487;28;20063;-68
2021/01/14 22:13:09;;;;;;;3.78;3.10;;;;;;;2.02;59.59;100478.97;10366629;28;20049;-70
2021/01/14 22:18:10;;;;;;;3.78;3.38;;;;;;;2.00;58.87;100480.78;10369737;28;20661;-69
2021/01/14 22:23:12;;;;;;;4.63;3.88;;;;;;;2.00;59.47;100475.53;10367122;28;20126;-70
2021/01/14 22:28:13;;;;;;;4.30;3.10;;;;;;;1.90;59.32;100454.09;10368825;28;20056;-71
2021/01/14 22:33:14;;;;;;;4.82;3.38;;;;;;;1.89;59.38;100476.00;10365679;28;20456;-69
2021/01/14 22:38:16;;;;;;;4.93;3.75;;;;;;;1.92;59.10;100483.75;10367518;28;20052;-69
2021/01/14 22:43:17;;;;;;;5.93;4.22;;;;;;;1.87;59.49;100480.47;10366523;28;20073;-70
2021/01/14 22:48:18;;;;;;;5.53;4.45;;;;;;;1.91;59.52;100488.16;10367437;28;20053;-70
2021/01/14 22:53:19;;;;;;;5.97;4.20;;;;;;;1.91;59.54;100484.69;10368427;28;20099;-70
2021/01/14 22:58:21;;;;;;;6.85;4.82;;;;;;;1.93;59.61;100486.31;10369657;28;20049;-70
2021/01/14 23:03:22;;;;;;;6.70;4.38;;;;;;;1.96;59.32;100480.06;10369464;28;20829;-69
2021/01/14 23:08:23;;;;;;;6.03;3.75;;;;;;;1.97;59.28;100487.06;10375011;28;20107;-69
2021/01/14 23:13:25;;;;;;;4.45;2.78;;;;;;;1.94;58.98;100488.03;10374876;28;20140;-70
2021/01/14 23:18:26;;;;;;;5.20;3.35;;;;;;;1.90;59.17;100491.69;10372341;28;20060;-70
2021/01/14 23:23:27;;;;;;;3.08;2.72;;;;;;;1.87;58.75;100486.56;10370406;28;20053;-69
2021/01/14 23:28:29;;;;;;;3.45;2.40;;;;;;;1.89;58.67;100500.50;10370724;28;20064;-69
2021/01/14 23:33:30;;;;;;;4.07;2.60;;;;;;;1.85;58.80;100492.81;10371333;28;20075;-68
2021/01/14 23:38:31;;;;;;;5.38;2.70;;;;;;;1.82;58.84;100490.28;10372635;28;20053;-69